Index of ftp://motomaninet.motoman.se/Open_folder/

[DIR] Root Directory

-15 -14 -13 -12 -11 -10 -09 -08 -07 -06 -05 -04 -03 -02 -01   page 01 of 02
+01 +02 +03 +04 +05 +06 +07 +08 +09 +10 +11 +12 +13 +14 +15   <- Back | Next page ->

[DIR] 13-5252 Svetscell VMF-750 S5D Gurskj  0.00b  June 2 2020 at 15:05
[DIR] Alimak  0.00b  June 2 2020 at 15:05
[DIR] Delfoi (Arronetcell)  0.00b  June 2 2020 at 15:05
[DIR] Delmia  0.00b  June 2 2020 at 15:05
[DIR] Eberspacher  0.00b  December 10 2013 at 11:58
[DIR] Flexman  0.00b  June 2 2020 at 15:05
[DIR] Kantpress  0.00b  June 2 2020 at 15:07
[DIR] Kleven  0.00b  June 2 2020 at 15:07
[DIR] Lincoln 1.7.3  0.00b  June 2 2020 at 15:07
[DIR] MasterCAM  0.00b  June 2 2020 at 15:07
[DIR] MH12 DX200  0.00b  December 5 2014 at 10:56
[DIR] MotoLIB_2015_MotoSIM  0.00b  June 2 2020 at 15:07
[DIR] MotoSIM_2015_v6.00  0.00b  June 2 2020 at 15:07
[DIR] MotoSIM_2016_SP2_v6.10  0.00b  June 2 2020 at 15:07
[DIR] MotoSIM_2016_SP3_v6.20  0.00b  June 2 2020 at 15:07
[DIR] MotoSIM_Atlet  0.00b  June 2 2020 at 15:07
[DIR] MotoSIM_Cells  0.00b  June 2 2020 at 15:07
[DIR] Motosim_Roni  0.00b  June 2 2020 at 15:07
[DIR] MotoSIM_v5.11  0.00b  August 24 2015 at 15:25
[DIR] Motosim_Volvo  0.00b  June 2 2020 at 15:07
[DIR] Motosim_Volvo_CAM  0.00b  June 2 2020 at 15:07
[DIR] MotoSIM-v5.20x64  0.00b  June 2 2020 at 15:07
[DIR] Motosoft  0.00b  June 2 2020 at 15:07
[DIR] Nitator  0.00b  June 2 2020 at 15:07
[DIR] Pltspecialisten  0.00b  June 2 2020 at 15:07
[DIR] Prodtex  0.00b  April 15 2016 at 08:47
[DIR] Profibus  0.00b  June 2 2020 at 15:07
[DIR] SchunkNordiska  0.00b  June 2 2020 at 15:07
[DIR] teknifo  0.00b  June 2 2020 at 15:07
[DIR] Temp  0.00b  May 7 2015 at 07:30

-15 -14 -13 -12 -11 -10 -09 -08 -07 -06 -05 -04 -03 -02 -01   page 01 of 02
+01 +02 +03 +04 +05 +06 +07 +08 +09 +10 +11 +12 +13 +14 +15   <- Back | Next page ->